createdAt,value
2018-10-21T00:02:13.741Z,65.5
2018-10-21T00:07:16.137Z,65.7
2018-10-21T00:12:18.579Z,65.6
2018-10-21T00:17:21.032Z,65.1
2018-10-21T00:22:23.452Z,64.6
2018-10-21T00:27:25.897Z,64.6
2018-10-21T00:32:28.354Z,64.7
2018-10-21T00:37:30.832Z,64.7
2018-10-21T00:42:33.207Z,64.6
2018-10-21T00:47:35.660Z,64.8
2018-10-21T00:52:38.088Z,64.8
2018-10-21T00:57:40.591Z,65
2018-10-21T01:02:43.109Z,65
2018-10-21T01:07:45.411Z,65.1
2018-10-21T01:12:47.854Z,64.8
2018-10-21T01:17:50.305Z,64.8
2018-10-21T01:22:52.735Z,64.9
2018-10-21T01:27:55.184Z,64.9
2018-10-21T01:32:57.682Z,64.9
2018-10-21T01:38:00.140Z,65
2018-10-21T01:43:02.500Z,65.2
2018-10-21T01:48:05.028Z,65.3
2018-10-21T01:53:07.375Z,65.4
2018-10-21T01:58:09.812Z,65.6
2018-10-21T02:03:12.392Z,65.9
2018-10-21T02:08:14.706Z,65.8
2018-10-21T02:13:17.137Z,66.2
2018-10-21T02:18:19.582Z,66.7
2018-10-21T02:23:22.025Z,66.8
2018-10-21T02:28:24.452Z,66.8
2018-10-21T02:33:27.051Z,67.2
2018-10-21T02:38:29.351Z,67.4
2018-10-21T02:43:31.800Z,67.6
2018-10-21T02:48:34.216Z,67.8
2018-10-21T02:58:39.085Z,68
2018-10-21T03:03:41.546Z,68.1
2018-10-21T03:08:44.096Z,68
2018-10-21T03:13:46.416Z,68.3
2018-10-21T03:18:48.866Z,68.3
2018-10-21T03:23:51.297Z,68.3
2018-10-21T03:28:53.734Z,68.2
2018-10-21T03:33:56.428Z,68.2
2018-10-21T03:38:58.707Z,68.2
2018-10-21T03:44:01.068Z,68.4
2018-10-21T03:49:03.503Z,68.8
2018-10-21T03:54:05.973Z,68.9
2018-10-21T03:59:08.557Z,69.1
2018-10-21T04:04:10.949Z,69.2
2018-10-21T04:09:13.381Z,69.4
2018-10-21T04:14:15.768Z,69.4
2018-10-21T04:19:18.156Z,70
2018-10-21T04:24:20.608Z,70.2
2018-10-21T04:29:23.048Z,70.3
2018-10-21T04:34:25.520Z,70.4
2018-10-21T04:39:27.890Z,70.7
2018-10-21T04:44:30.339Z,70.8
2018-10-21T04:49:32.793Z,70.9
2018-10-21T04:54:35.235Z,71.1
2018-10-21T04:59:37.707Z,71.2
2018-10-21T05:04:40.098Z,71.1
2018-10-21T05:09:42.533Z,71.4
2018-10-21T05:14:44.976Z,71.2
2018-10-21T05:19:47.432Z,71.7
2018-10-21T05:24:49.853Z,71.8
2018-10-21T05:29:52.312Z,71.7
2018-10-21T05:34:54.779Z,71.6
2018-10-21T05:39:57.190Z,71.8
2018-10-21T05:44:59.610Z,72.2
2018-10-21T05:50:02.122Z,72.3
2018-10-21T05:55:04.515Z,72.7
2018-10-21T06:00:07.016Z,73
2018-10-21T06:05:09.404Z,73
2018-10-21T06:10:11.874Z,72.8
2018-10-21T06:15:14.244Z,73
2018-10-21T06:20:16.704Z,73
2018-10-21T06:25:19.141Z,72.9
2018-10-21T06:30:21.592Z,73
2018-10-21T06:35:24.034Z,73.1
2018-10-21T06:40:26.465Z,73.6
2018-10-21T06:45:28.963Z,73.9
2018-10-21T06:50:31.400Z,73.7
2018-10-21T06:55:33.771Z,73.8
2018-10-21T07:00:36.211Z,73.9
2018-10-21T07:05:38.661Z,73.9
2018-10-21T07:10:41.099Z,74.4
2018-10-21T07:15:43.577Z,74.4
2018-10-21T07:20:45.982Z,74.7
2018-10-21T07:25:48.424Z,74.6
2018-10-21T07:30:50.846Z,74.6
2018-10-21T07:35:53.385Z,74.2
2018-10-21T07:40:55.743Z,73.9
2018-10-21T07:45:58.211Z,73.9
2018-10-21T07:51:00.667Z,74.1
2018-10-21T07:56:03.053Z,74.2
2018-10-21T08:01:05.621Z,74.3
2018-10-21T08:06:07.954Z,73.8
2018-10-21T08:11:10.399Z,73.5
2018-10-21T08:16:12.890Z,73.4
2018-10-21T08:21:15.303Z,72.6
2018-10-21T08:26:17.715Z,72.7
2018-10-21T08:31:20.131Z,72.9
2018-10-21T08:36:22.605Z,73
2018-10-21T08:41:25.017Z,73.2
2018-10-21T08:46:27.681Z,72.1
2018-10-21T08:51:29.924Z,71.4
2018-10-21T08:56:32.353Z,70.6
2018-10-21T09:01:34.803Z,70
2018-10-21T09:06:37.214Z,69.7
2018-10-21T09:11:39.660Z,69.6
2018-10-21T09:16:42.285Z,69.7
2018-10-21T09:21:44.620Z,69.6
2018-10-21T09:26:47.121Z,69.9
2018-10-21T09:31:49.412Z,69.1
2018-10-21T09:36:51.860Z,68.1
2018-10-21T09:41:54.286Z,66.7
2018-10-21T09:46:56.744Z,66.9
2018-10-21T09:51:59.246Z,67.9
2018-10-21T09:57:01.621Z,65.9
2018-10-21T10:02:04.063Z,62.3
2018-10-21T10:07:06.576Z,61.2
2018-10-21T10:12:08.961Z,59.7
2018-10-21T10:17:11.381Z,59.1
2018-10-21T10:22:13.893Z,59.4
2018-10-21T10:27:16.260Z,59.6
2018-10-21T10:32:18.689Z,59.6
2018-10-21T10:37:21.139Z,59.2
2018-10-21T10:42:23.845Z,55.6
2018-10-21T10:47:26.030Z,54.5
2018-10-21T10:52:28.483Z,53
2018-10-21T10:57:30.917Z,52.9
2018-10-21T11:02:33.334Z,53.6
2018-10-21T11:07:35.784Z,54.4
2018-10-21T11:12:38.225Z,54.8
2018-10-21T11:17:40.686Z,54.7
2018-10-21T11:22:43.241Z,54.4
2018-10-21T11:27:45.549Z,54.6
2018-10-21T11:32:47.980Z,53.9
2018-10-21T11:37:50.512Z,53.6
2018-10-21T11:42:52.885Z,53.1
2018-10-21T11:47:55.304Z,52.8
2018-10-21T11:52:57.775Z,52.7
2018-10-21T11:58:00.230Z,52
2018-10-21T12:03:02.620Z,52
2018-10-21T12:08:05.075Z,52.4
2018-10-21T12:13:07.509Z,54.7
2018-10-21T12:18:09.961Z,53
2018-10-21T12:23:12.553Z,52.8
2018-10-21T12:28:14.965Z,50.6
2018-10-21T12:33:17.272Z,49.7
2018-10-21T12:38:19.719Z,49.9
2018-10-21T12:43:22.144Z,50.8
2018-10-21T12:48:24.585Z,52.6
2018-10-21T12:53:27.044Z,51.8
2018-10-21T12:58:29.482Z,48.8
2018-10-21T13:03:31.940Z,44.1
2018-10-21T13:08:34.381Z,41.6
2018-10-21T13:13:36.812Z,39.3
2018-10-21T13:18:39.243Z,36.4
2018-10-21T13:23:41.691Z,35.5
2018-10-21T13:28:44.203Z,34.5
2018-10-21T13:33:46.580Z,33.1
2018-10-21T13:38:49.012Z,31.8
2018-10-21T13:43:51.454Z,30.6
2018-10-21T13:48:53.935Z,29.7
2018-10-21T13:53:56.349Z,29.3
2018-10-21T13:58:58.807Z,28.5
2018-10-21T14:04:01.302Z,27.4
2018-10-21T14:09:03.671Z,27.8
2018-10-21T14:14:06.106Z,28.2
2018-10-21T14:19:08.557Z,28.1
2018-10-21T14:24:11.068Z,27.3
2018-10-21T14:29:13.447Z,27.2
2018-10-21T14:34:15.893Z,27
2018-10-21T14:39:18.432Z,27.5
2018-10-21T14:44:21.019Z,28.1
2018-10-21T14:49:23.211Z,28.6
2018-10-21T14:54:25.653Z,29.6
2018-10-21T14:59:28.090Z,30.8
2018-10-21T15:04:30.558Z,32
2018-10-21T15:09:32.986Z,33.5
2018-10-21T15:14:35.411Z,34.5
2018-10-21T15:19:37.859Z,35.7
2018-10-21T15:24:40.300Z,36.6
2018-10-21T15:29:42.837Z,37.1
2018-10-21T15:34:45.299Z,37.9
2018-10-21T15:39:47.751Z,38.6
2018-10-21T15:44:50.058Z,39
2018-10-21T15:49:52.526Z,39.6
2018-10-21T15:54:54.941Z,40.1
2018-10-21T15:59:57.378Z,40.8
2018-10-21T16:04:59.814Z,41.3
2018-10-21T16:10:02.311Z,42
2018-10-21T16:15:04.697Z,42.4
2018-10-21T16:20:07.187Z,42.9
2018-10-21T16:25:09.586Z,43.4
2018-10-21T16:30:12.015Z,43.7
2018-10-21T16:35:14.597Z,44.1
2018-10-21T16:40:16.945Z,45.3
2018-10-21T16:45:19.598Z,45.7
2018-10-21T16:50:21.768Z,46.1
2018-10-21T16:55:24.230Z,46.4
2018-10-21T17:00:26.825Z,46.8
2018-10-21T17:05:29.168Z,47.1
2018-10-21T17:10:32.057Z,47.4
2018-10-21T17:15:33.987Z,47.5
2018-10-21T17:20:36.421Z,47.7
2018-10-21T17:25:38.866Z,48
2018-10-21T17:30:41.307Z,48.5
2018-10-21T17:35:43.746Z,49.1
2018-10-21T17:40:46.276Z,49.5
2018-10-21T17:45:48.676Z,49.6
2018-10-21T17:50:51.067Z,49.7
2018-10-21T17:55:53.510Z,50
2018-10-21T18:00:55.967Z,50.1
2018-10-21T18:05:58.393Z,50.7
2018-10-21T18:11:00.827Z,50.8
2018-10-21T18:16:03.335Z,50.9
2018-10-21T18:21:05.803Z,51.3
2018-10-21T18:26:08.302Z,51.5
2018-10-21T18:31:10.630Z,51.6
2018-10-21T18:36:13.012Z,51.7
2018-10-21T18:41:15.716Z,51.8
2018-10-21T18:46:17.964Z,51.8
2018-10-21T18:51:20.369Z,52.7
2018-10-21T18:56:22.785Z,53.1
2018-10-21T19:01:25.215Z,53
2018-10-21T19:06:27.687Z,53.1
2018-10-21T19:11:30.092Z,53.3
2018-10-21T19:16:32.539Z,53.3
2018-10-21T19:21:34.994Z,53.3
2018-10-21T19:26:37.449Z,53.4
2018-10-21T19:31:39.865Z,53.6
2018-10-21T19:36:42.299Z,53.7
2018-10-21T19:41:44.759Z,53.8
2018-10-21T19:46:47.181Z,53.7
2018-10-21T19:51:49.627Z,53.8
2018-10-21T19:57:07.920Z,54.1
2018-10-21T20:01:54.496Z,54.2
2018-10-21T20:06:56.924Z,54.1
2018-10-21T20:11:59.445Z,54.2
2018-10-21T20:17:01.874Z,54.4
2018-10-21T20:22:04.356Z,54.4
2018-10-21T20:27:06.721Z,54.6
2018-10-21T20:32:09.146Z,54.8
2018-10-21T20:37:11.562Z,54.6
2018-10-21T20:42:14.123Z,54.5
2018-10-21T20:47:16.456Z,54.5
2018-10-21T20:52:18.893Z,54.6
2018-10-21T20:57:21.328Z,54.7
